sensor_id;sensor_type;location;lat;lon;timestamp;P1;durP1;ratioP1;P2;durP2;ratioP2
45694;SDS011;31408;45.468;9.124;2023-09-07T00:02:19;14.85;;;6.40;;
45694;SDS011;31408;45.468;9.124;2023-09-07T00:04:44;13.38;;;5.30;;
45694;SDS011;31408;45.468;9.124;2023-09-07T00:07:10;12.00;;;6.07;;
45694;SDS011;31408;45.468;9.124;2023-09-07T00:09:35;11.85;;;5.50;;
45694;SDS011;31408;45.468;9.124;2023-09-07T00:12:01;12.88;;;5.57;;
45694;SDS011;31408;45.468;9.124;2023-09-07T00:14:26;14.43;;;6.03;;
45694;SDS011;31408;45.468;9.124;2023-09-07T00:16:51;13.52;;;5.32;;
45694;SDS011;31408;45.468;9.124;2023-09-07T00:19:17;11.02;;;5.97;;
45694;SDS011;31408;45.468;9.124;2023-09-07T00:21:42;15.45;;;6.75;;
45694;SDS011;31408;45.468;9.124;2023-09-07T00:24:07;13.27;;;6.32;;
45694;SDS011;31408;45.468;9.124;2023-09-07T00:26:33;12.10;;;7.10;;
45694;SDS011;31408;45.468;9.124;2023-09-07T00:28:58;13.18;;;5.10;;
45694;SDS011;31408;45.468;9.124;2023-09-07T00:31:24;12.18;;;5.90;;
45694;SDS011;31408;45.468;9.124;2023-09-07T00:33:49;11.35;;;5.80;;
45694;SDS011;31408;45.468;9.124;2023-09-07T00:36:15;14.02;;;5.97;;
45694;SDS011;31408;45.468;9.124;2023-09-07T00:38:40;12.52;;;5.50;;
45694;SDS011;31408;45.468;9.124;2023-09-07T00:41:06;13.45;;;5.72;;
45694;SDS011;31408;45.468;9.124;2023-09-07T00:43:32;14.55;;;6.25;;
45694;SDS011;31408;45.468;9.124;2023-09-07T00:45:57;9.40;;;5.45;;
45694;SDS011;31408;45.468;9.124;2023-09-07T00:48:22;14.63;;;5.82;;
45694;SDS011;31408;45.468;9.124;2023-09-07T00:50:48;13.15;;;5.50;;
45694;SDS011;31408;45.468;9.124;2023-09-07T00:53:14;12.13;;;5.68;;
45694;SDS011;31408;45.468;9.124;2023-09-07T00:55:39;13.43;;;5.95;;
45694;SDS011;31408;45.468;9.124;2023-09-07T00:58:05;14.60;;;6.18;;
45694;SDS011;31408;45.468;9.124;2023-09-07T01:00:30;16.88;;;6.13;;
45694;SDS011;31408;45.468;9.124;2023-09-07T01:02:56;13.00;;;5.93;;
45694;SDS011;31408;45.468;9.124;2023-09-07T01:05:24;13.85;;;6.07;;
45694;SDS011;31408;45.468;9.124;2023-09-07T01:08:10;10.68;;;5.18;;
45694;SDS011;31408;45.468;9.124;2023-09-07T01:10:37;13.07;;;5.60;;
45694;SDS011;31408;45.468;9.124;2023-09-07T01:13:02;14.77;;;6.28;;
45694;SDS011;31408;45.468;9.124;2023-09-07T01:15:28;12.43;;;6.53;;
45694;SDS011;31408;45.468;9.124;2023-09-07T01:17:53;10.98;;;5.70;;
45694;SDS011;31408;45.468;9.124;2023-09-07T01:20:20;15.18;;;6.93;;
45694;SDS011;31408;45.468;9.124;2023-09-07T01:22:46;12.85;;;5.95;;
45694;SDS011;31408;45.468;9.124;2023-09-07T01:25:12;13.32;;;6.45;;
45694;SDS011;31408;45.468;9.124;2023-09-07T01:27:37;12.63;;;6.15;;
45694;SDS011;31408;45.468;9.124;2023-09-07T01:30:03;15.10;;;6.22;;
45694;SDS011;31408;45.468;9.124;2023-09-07T01:32:29;15.07;;;6.90;;
45694;SDS011;31408;45.468;9.124;2023-09-07T01:34:55;13.15;;;6.00;;
45694;SDS011;31408;45.468;9.124;2023-09-07T01:37:21;15.80;;;7.57;;
45694;SDS011;31408;45.468;9.124;2023-09-07T01:39:47;16.23;;;6.72;;
45694;SDS011;31408;45.468;9.124;2023-09-07T01:42:14;15.20;;;6.95;;
45694;SDS011;31408;45.468;9.124;2023-09-07T01:44:39;14.90;;;7.18;;
45694;SDS011;31408;45.468;9.124;2023-09-07T01:47:04;14.30;;;6.88;;
45694;SDS011;31408;45.468;9.124;2023-09-07T01:49:30;13.60;;;6.63;;
45694;SDS011;31408;45.468;9.124;2023-09-07T01:51:55;17.77;;;7.45;;
45694;SDS011;31408;45.468;9.124;2023-09-07T01:54:21;13.55;;;6.97;;
45694;SDS011;31408;45.468;9.124;2023-09-07T01:56:46;19.80;;;6.07;;
45694;SDS011;31408;45.468;9.124;2023-09-07T01:59:12;14.57;;;7.07;;
45694;SDS011;31408;45.468;9.124;2023-09-07T02:01:37;18.30;;;6.20;;
45694;SDS011;31408;45.468;9.124;2023-09-07T02:04:04;14.25;;;5.95;;
45694;SDS011;31408;45.468;9.124;2023-09-07T02:06:29;17.17;;;7.13;;
45694;SDS011;31408;45.468;9.124;2023-09-07T02:08:55;12.05;;;7.22;;
45694;SDS011;31408;45.468;9.124;2023-09-07T02:11:21;14.20;;;6.35;;
45694;SDS011;31408;45.468;9.124;2023-09-07T02:13:48;14.07;;;6.72;;
45694;SDS011;31408;45.468;9.124;2023-09-07T02:16:14;12.13;;;5.63;;
45694;SDS011;31408;45.468;9.124;2023-09-07T02:18:39;18.50;;;6.85;;
45694;SDS011;31408;45.468;9.124;2023-09-07T02:21:12;12.40;;;5.90;;
45694;SDS011;31408;45.468;9.124;2023-09-07T02:23:37;16.85;;;7.35;;
45694;SDS011;31408;45.468;9.124;2023-09-07T02:26:03;17.00;;;6.63;;
45694;SDS011;31408;45.468;9.124;2023-09-07T02:28:29;17.05;;;6.53;;
45694;SDS011;31408;45.468;9.124;2023-09-07T02:30:54;12.93;;;6.38;;
45694;SDS011;31408;45.468;9.124;2023-09-07T02:33:20;8.25;;;5.00;;
45694;SDS011;31408;45.468;9.124;2023-09-07T02:35:47;11.80;;;5.68;;
45694;SDS011;31408;45.468;9.124;2023-09-07T02:38:13;11.80;;;5.85;;
45694;SDS011;31408;45.468;9.124;2023-09-07T02:40:42;10.88;;;6.15;;
45694;SDS011;31408;45.468;9.124;2023-09-07T02:43:07;10.45;;;5.68;;
45694;SDS011;31408;45.468;9.124;2023-09-07T02:45:33;12.68;;;6.35;;
45694;SDS011;31408;45.468;9.124;2023-09-07T02:47:59;13.38;;;6.13;;
45694;SDS011;31408;45.468;9.124;2023-09-07T02:50:24;12.38;;;5.80;;
45694;SDS011;31408;45.468;9.124;2023-09-07T02:52:49;13.88;;;6.80;;
45694;SDS011;31408;45.468;9.124;2023-09-07T02:55:15;10.95;;;5.80;;
45694;SDS011;31408;45.468;9.124;2023-09-07T02:57:41;15.15;;;6.05;;
45694;SDS011;31408;45.468;9.124;2023-09-07T03:00:07;14.05;;;6.30;;
45694;SDS011;31408;45.468;9.124;2023-09-07T03:02:35;11.48;;;5.65;;
45694;SDS011;31408;45.468;9.124;2023-09-07T03:05:01;10.55;;;5.25;;
45694;SDS011;31408;45.468;9.124;2023-09-07T03:07:26;11.68;;;5.50;;
45694;SDS011;31408;45.468;9.124;2023-09-07T03:09:52;13.23;;;6.00;;
45694;SDS011;31408;45.468;9.124;2023-09-07T03:12:18;16.17;;;6.60;;
45694;SDS011;31408;45.468;9.124;2023-09-07T03:14:43;13.60;;;5.78;;
45694;SDS011;31408;45.468;9.124;2023-09-07T03:17:09;15.38;;;6.82;;
45694;SDS011;31408;45.468;9.124;2023-09-07T03:19:35;14.15;;;5.88;;
45694;SDS011;31408;45.468;9.124;2023-09-07T03:22:01;12.65;;;5.75;;
45694;SDS011;31408;45.468;9.124;2023-09-07T03:24:26;11.23;;;6.32;;
45694;SDS011;31408;45.468;9.124;2023-09-07T03:26:53;14.00;;;5.75;;
45694;SDS011;31408;45.468;9.124;2023-09-07T03:29:18;9.68;;;5.28;;
45694;SDS011;31408;45.468;9.124;2023-09-07T03:31:43;10.93;;;5.43;;
45694;SDS011;31408;45.468;9.124;2023-09-07T03:34:09;10.20;;;5.53;;
45694;SDS011;31408;45.468;9.124;2023-09-07T03:36:34;13.82;;;6.07;;
45694;SDS011;31408;45.468;9.124;2023-09-07T03:39:01;8.93;;;5.55;;
45694;SDS011;31408;45.468;9.124;2023-09-07T03:41:26;12.65;;;5.65;;
45694;SDS011;31408;45.468;9.124;2023-09-07T03:43:56;11.70;;;5.78;;
45694;SDS011;31408;45.468;9.124;2023-09-07T03:46:22;10.90;;;6.07;;
45694;SDS011;31408;45.468;9.124;2023-09-07T03:48:47;12.98;;;5.55;;
45694;SDS011;31408;45.468;9.124;2023-09-07T03:51:12;11.77;;;5.80;;
45694;SDS011;31408;45.468;9.124;2023-09-07T03:53:38;12.32;;;5.32;;
45694;SDS011;31408;45.468;9.124;2023-09-07T03:56:04;9.38;;;5.22;;
45694;SDS011;31408;45.468;9.124;2023-09-07T03:58:29;15.18;;;5.85;;
45694;SDS011;31408;45.468;9.124;2023-09-07T04:00:54;11.38;;;5.22;;
45694;SDS011;31408;45.468;9.124;2023-09-07T04:03:20;12.63;;;6.07;;
45694;SDS011;31408;45.468;9.124;2023-09-07T04:05:45;13.65;;;6.50;;
45694;SDS011;31408;45.468;9.124;2023-09-07T04:08:11;11.70;;;5.90;;
45694;SDS011;31408;45.468;9.124;2023-09-07T04:10:37;8.98;;;5.40;;
45694;SDS011;31408;45.468;9.124;2023-09-07T04:13:03;13.85;;;6.28;;
45694;SDS011;31408;45.468;9.124;2023-09-07T04:15:29;15.40;;;6.75;;
45694;SDS011;31408;45.468;9.124;2023-09-07T04:17:56;9.20;;;5.15;;
45694;SDS011;31408;45.468;9.124;2023-09-07T04:20:22;12.10;;;6.35;;
45694;SDS011;31408;45.468;9.124;2023-09-07T04:22:47;16.80;;;6.97;;
45694;SDS011;31408;45.468;9.124;2023-09-07T04:25:12;15.02;;;7.95;;
45694;SDS011;31408;45.468;9.124;2023-09-07T04:27:38;12.77;;;6.47;;
45694;SDS011;31408;45.468;9.124;2023-09-07T04:30:04;15.57;;;7.28;;
45694;SDS011;31408;45.468;9.124;2023-09-07T04:32:30;15.93;;;6.97;;
45694;SDS011;31408;45.468;9.124;2023-09-07T04:34:56;11.13;;;6.40;;
45694;SDS011;31408;45.468;9.124;2023-09-07T04:37:22;16.75;;;7.25;;
45694;SDS011;31408;45.468;9.124;2023-09-07T04:39:50;15.68;;;7.18;;
45694;SDS011;31408;45.468;9.124;2023-09-07T04:42:15;13.20;;;5.95;;
45694;SDS011;31408;45.468;9.124;2023-09-07T04:44:41;16.13;;;6.45;;
45694;SDS011;31408;45.468;9.124;2023-09-07T04:47:06;14.20;;;6.45;;
45694;SDS011;31408;45.468;9.124;2023-09-07T04:49:32;15.80;;;6.88;;
45694;SDS011;31408;45.468;9.124;2023-09-07T04:51:57;14.38;;;6.88;;
45694;SDS011;31408;45.468;9.124;2023-09-07T04:54:24;13.15;;;6.28;;
45694;SDS011;31408;45.468;9.124;2023-09-07T04:56:49;12.20;;;6.60;;
45694;SDS011;31408;45.468;9.124;2023-09-07T04:59:14;13.43;;;6.53;;
45694;SDS011;31408;45.468;9.124;2023-09-07T05:01:40;13.50;;;7.18;;
45694;SDS011;31408;45.468;9.124;2023-09-07T05:04:05;11.00;;;5.68;;
45694;SDS011;31408;45.468;9.124;2023-09-07T05:06:31;16.15;;;6.97;;
45694;SDS011;31408;45.468;9.124;2023-09-07T05:08:56;11.65;;;6.55;;
45694;SDS011;31408;45.468;9.124;2023-09-07T05:11:21;16.38;;;7.28;;
45694;SDS011;31408;45.468;9.124;2023-09-07T05:13:47;11.57;;;7.03;;
45694;SDS011;31408;45.468;9.124;2023-09-07T05:16:13;17.58;;;7.70;;
45694;SDS011;31408;45.468;9.124;2023-09-07T05:18:40;20.13;;;7.43;;
45694;SDS011;31408;45.468;9.124;2023-09-07T05:21:15;13.15;;;6.05;;
45694;SDS011;31408;45.468;9.124;2023-09-07T05:23:41;15.68;;;6.57;;
45694;SDS011;31408;45.468;9.124;2023-09-07T05:26:07;15.13;;;6.63;;
45694;SDS011;31408;45.468;9.124;2023-09-07T05:28:33;14.20;;;6.88;;
45694;SDS011;31408;45.468;9.124;2023-09-07T05:31:08;11.68;;;7.03;;
45694;SDS011;31408;45.468;9.124;2023-09-07T05:33:34;14.13;;;6.28;;
45694;SDS011;31408;45.468;9.124;2023-09-07T05:36:00;17.10;;;7.47;;
45694;SDS011;31408;45.468;9.124;2023-09-07T05:38:27;11.85;;;6.40;;
45694;SDS011;31408;45.468;9.124;2023-09-07T05:40:53;14.98;;;7.38;;
45694;SDS011;31408;45.468;9.124;2023-09-07T05:43:20;16.15;;;7.45;;
45694;SDS011;31408;45.468;9.124;2023-09-07T05:45:46;23.27;;;9.93;;
45694;SDS011;31408;45.468;9.124;2023-09-07T05:48:12;18.73;;;8.38;;
45694;SDS011;31408;45.468;9.124;2023-09-07T05:50:38;18.45;;;7.18;;
45694;SDS011;31408;45.468;9.124;2023-09-07T05:53:04;10.88;;;6.32;;
45694;SDS011;31408;45.468;9.124;2023-09-07T05:55:30;15.40;;;6.35;;
45694;SDS011;31408;45.468;9.124;2023-09-07T05:57:56;14.52;;;6.63;;
45694;SDS011;31408;45.468;9.124;2023-09-07T06:00:22;12.73;;;6.28;;
45694;SDS011;31408;45.468;9.124;2023-09-07T06:02:49;15.77;;;6.75;;
45694;SDS011;31408;45.468;9.124;2023-09-07T06:05:15;9.10;;;5.60;;
45694;SDS011;31408;45.468;9.124;2023-09-07T06:07:40;16.35;;;5.93;;
45694;SDS011;31408;45.468;9.124;2023-09-07T06:10:07;10.88;;;5.82;;
45694;SDS011;31408;45.468;9.124;2023-09-07T06:12:33;11.50;;;5.45;;
45694;SDS011;31408;45.468;9.124;2023-09-07T06:15:00;13.43;;;6.18;;
45694;SDS011;31408;45.468;9.124;2023-09-07T06:17:27;14.63;;;6.05;;
45694;SDS011;31408;45.468;9.124;2023-09-07T06:20:07;10.43;;;4.78;;
45694;SDS011;31408;45.468;9.124;2023-09-07T06:22:33;13.73;;;6.68;;
45694;SDS011;31408;45.468;9.124;2023-09-07T06:24:59;10.38;;;5.63;;
45694;SDS011;31408;45.468;9.124;2023-09-07T06:27:25;11.93;;;5.72;;
45694;SDS011;31408;45.468;9.124;2023-09-07T06:29:51;25.52;;;6.55;;
45694;SDS011;31408;45.468;9.124;2023-09-07T06:32:16;10.65;;;5.70;;
45694;SDS011;31408;45.468;9.124;2023-09-07T06:34:42;12.85;;;6.05;;
45694;SDS011;31408;45.468;9.124;2023-09-07T06:37:07;13.77;;;6.22;;
45694;SDS011;31408;45.468;9.124;2023-09-07T06:39:33;14.63;;;5.97;;
45694;SDS011;31408;45.468;9.124;2023-09-07T06:41:59;10.90;;;6.40;;
45694;SDS011;31408;45.468;9.124;2023-09-07T06:44:29;12.73;;;6.40;;
45694;SDS011;31408;45.468;9.124;2023-09-07T06:46:55;10.77;;;6.00;;
45694;SDS011;31408;45.468;9.124;2023-09-07T06:49:21;14.35;;;6.32;;
45694;SDS011;31408;45.468;9.124;2023-09-07T06:51:46;10.48;;;5.72;;
45694;SDS011;31408;45.468;9.124;2023-09-07T06:54:12;14.65;;;6.20;;
45694;SDS011;31408;45.468;9.124;2023-09-07T06:56:39;11.57;;;5.57;;
45694;SDS011;31408;45.468;9.124;2023-09-07T06:59:05;12.60;;;5.72;;
45694;SDS011;31408;45.468;9.124;2023-09-07T07:01:30;10.18;;;5.28;;
45694;SDS011;31408;45.468;9.124;2023-09-07T07:03:56;20.13;;;5.72;;
45694;SDS011;31408;45.468;9.124;2023-09-07T07:06:23;10.68;;;5.40;;
45694;SDS011;31408;45.468;9.124;2023-09-07T07:08:48;11.57;;;5.72;;
45694;SDS011;31408;45.468;9.124;2023-09-07T07:11:14;12.02;;;6.20;;
45694;SDS011;31408;45.468;9.124;2023-09-07T07:13:40;12.98;;;5.55;;
45694;SDS011;31408;45.468;9.124;2023-09-07T07:16:05;16.25;;;6.63;;
45694;SDS011;31408;45.468;9.124;2023-09-07T07:18:31;18.70;;;6.00;;
45694;SDS011;31408;45.468;9.124;2023-09-07T07:21:03;15.02;;;5.63;;
45694;SDS011;31408;45.468;9.124;2023-09-07T07:23:28;16.35;;;5.53;;
45694;SDS011;31408;45.468;9.124;2023-09-07T07:25:54;13.93;;;6.03;;
45694;SDS011;31408;45.468;9.124;2023-09-07T07:28:20;13.50;;;5.15;;
45694;SDS011;31408;45.468;9.124;2023-09-07T07:30:51;11.60;;;5.32;;
45694;SDS011;31408;45.468;9.124;2023-09-07T07:33:19;11.43;;;5.28;;
45694;SDS011;31408;45.468;9.124;2023-09-07T07:35:44;17.08;;;5.97;;
45694;SDS011;31408;45.468;9.124;2023-09-07T07:38:10;22.48;;;6.82;;
45694;SDS011;31408;45.468;9.124;2023-09-07T07:40:38;11.07;;;5.03;;
45694;SDS011;31408;45.468;9.124;2023-09-07T07:43:04;7.82;;;3.85;;
45694;SDS011;31408;45.468;9.124;2023-09-07T07:45:29;8.27;;;4.35;;
45694;SDS011;31408;45.468;9.124;2023-09-07T07:47:55;11.23;;;4.18;;
45694;SDS011;31408;45.468;9.124;2023-09-07T07:50:21;5.00;;;3.33;;
45694;SDS011;31408;45.468;9.124;2023-09-07T07:52:47;8.40;;;3.58;;
45694;SDS011;31408;45.468;9.124;2023-09-07T07:55:13;5.88;;;2.97;;
45694;SDS011;31408;45.468;9.124;2023-09-07T07:57:39;6.72;;;3.63;;
45694;SDS011;31408;45.468;9.124;2023-09-07T08:00:07;5.60;;;3.42;;
45694;SDS011;31408;45.468;9.124;2023-09-07T08:02:39;5.97;;;3.07;;
45694;SDS011;31408;45.468;9.124;2023-09-07T08:05:05;5.07;;;2.65;;
45694;SDS011;31408;45.468;9.124;2023-09-07T08:07:38;5.93;;;3.17;;
45694;SDS011;31408;45.468;9.124;2023-09-07T08:10:04;7.07;;;3.47;;
45694;SDS011;31408;45.468;9.124;2023-09-07T08:12:30;5.30;;;3.70;;
45694;SDS011;31408;45.468;9.124;2023-09-07T08:14:55;7.72;;;3.50;;
45694;SDS011;31408;45.468;9.124;2023-09-07T08:17:22;9.05;;;3.40;;
45694;SDS011;31408;45.468;9.124;2023-09-07T08:19:48;5.25;;;3.30;;
45694;SDS011;31408;45.468;9.124;2023-09-07T08:22:17;8.88;;;3.80;;
45694;SDS011;31408;45.468;9.124;2023-09-07T08:24:42;8.88;;;3.42;;
45694;SDS011;31408;45.468;9.124;2023-09-07T08:27:09;6.25;;;3.28;;
45694;SDS011;31408;45.468;9.124;2023-09-07T08:29:42;8.85;;;3.40;;
45694;SDS011;31408;45.468;9.124;2023-09-07T08:32:12;4.95;;;2.58;;
45694;SDS011;31408;45.468;9.124;2023-09-07T08:34:39;7.13;;;3.60;;
45694;SDS011;31408;45.468;9.124;2023-09-07T08:37:05;5.60;;;3.40;;
45694;SDS011;31408;45.468;9.124;2023-09-07T08:39:33;5.10;;;2.90;;
45694;SDS011;31408;45.468;9.124;2023-09-07T08:41:59;7.25;;;3.17;;
45694;SDS011;31408;45.468;9.124;2023-09-07T08:44:26;8.02;;;3.33;;
45694;SDS011;31408;45.468;9.124;2023-09-07T08:46:51;6.05;;;3.28;;
45694;SDS011;31408;45.468;9.124;2023-09-07T08:49:18;3.70;;;2.72;;
45694;SDS011;31408;45.468;9.124;2023-09-07T08:51:48;7.63;;;3.53;;
45694;SDS011;31408;45.468;9.124;2023-09-07T08:54:14;12.40;;;3.40;;
45694;SDS011;31408;45.468;9.124;2023-09-07T08:56:39;5.88;;;3.10;;
45694;SDS011;31408;45.468;9.124;2023-09-07T08:59:04;6.03;;;3.30;;
45694;SDS011;31408;45.468;9.124;2023-09-07T09:01:30;9.40;;;3.50;;
45694;SDS011;31408;45.468;9.124;2023-09-07T09:03:59;5.22;;;2.92;;
45694;SDS011;31408;45.468;9.124;2023-09-07T09:06:25;5.45;;;2.85;;
45694;SDS011;31408;45.468;9.124;2023-09-07T09:08:51;4.07;;;2.97;;
45694;SDS011;31408;45.468;9.124;2023-09-07T09:11:19;5.53;;;2.83;;
45694;SDS011;31408;45.468;9.124;2023-09-07T09:13:45;8.18;;;3.97;;
45694;SDS011;31408;45.468;9.124;2023-09-07T09:16:11;7.57;;;3.63;;
45694;SDS011;31408;45.468;9.124;2023-09-07T09:18:38;5.20;;;2.78;;
45694;SDS011;31408;45.468;9.124;2023-09-07T09:21:04;3.90;;;2.70;;
45694;SDS011;31408;45.468;9.124;2023-09-07T09:23:33;4.25;;;2.50;;
45694;SDS011;31408;45.468;9.124;2023-09-07T09:26:02;5.28;;;2.55;;
45694;SDS011;31408;45.468;9.124;2023-09-07T09:28:31;6.05;;;3.08;;
45694;SDS011;31408;45.468;9.124;2023-09-07T09:30:58;8.15;;;2.78;;
45694;SDS011;31408;45.468;9.124;2023-09-07T09:33:23;5.90;;;2.92;;
45694;SDS011;31408;45.468;9.124;2023-09-07T09:35:49;8.88;;;3.50;;
45694;SDS011;31408;45.468;9.124;2023-09-07T09:38:15;4.60;;;3.08;;
45694;SDS011;31408;45.468;9.124;2023-09-07T09:40:42;7.57;;;3.50;;
45694;SDS011;31408;45.468;9.124;2023-09-07T09:43:07;7.07;;;3.75;;
45694;SDS011;31408;45.468;9.124;2023-09-07T09:45:33;5.43;;;3.45;;
45694;SDS011;31408;45.468;9.124;2023-09-07T09:48:00;7.90;;;3.42;;
45694;SDS011;31408;45.468;9.124;2023-09-07T09:50:26;8.68;;;4.05;;
45694;SDS011;31408;45.468;9.124;2023-09-07T09:52:54;7.00;;;3.92;;
45694;SDS011;31408;45.468;9.124;2023-09-07T09:55:20;7.18;;;4.55;;
45694;SDS011;31408;45.468;9.124;2023-09-07T09:57:46;4.40;;;2.55;;
45694;SDS011;31408;45.468;9.124;2023-09-07T10:00:12;5.47;;;3.42;;
45694;SDS011;31408;45.468;9.124;2023-09-07T10:05:22;9.88;;;4.50;;
45694;SDS011;31408;45.468;9.124;2023-09-07T10:07:48;9.57;;;4.00;;
45694;SDS011;31408;45.468;9.124;2023-09-07T10:10:14;9.38;;;3.97;;
45694;SDS011;31408;45.468;9.124;2023-09-07T10:12:41;6.90;;;4.40;;
45694;SDS011;31408;45.468;9.124;2023-09-07T10:15:06;6.30;;;3.13;;
45694;SDS011;31408;45.468;9.124;2023-09-07T10:17:32;9.23;;;4.05;;
45694;SDS011;31408;45.468;9.124;2023-09-07T10:20:04;7.65;;;4.68;;
45694;SDS011;31408;45.468;9.124;2023-09-07T10:22:30;13.48;;;5.40;;
45694;SDS011;31408;45.468;9.124;2023-09-07T10:24:56;8.80;;;4.20;;
45694;SDS011;31408;45.468;9.124;2023-09-07T10:27:22;8.73;;;5.57;;
45694;SDS011;31408;45.468;9.124;2023-09-07T10:29:50;8.27;;;4.43;;
45694;SDS011;31408;45.468;9.124;2023-09-07T10:32:18;4.97;;;3.25;;
45694;SDS011;31408;45.468;9.124;2023-09-07T10:34:44;8.38;;;3.85;;
45694;SDS011;31408;45.468;9.124;2023-09-07T10:37:10;5.55;;;3.50;;
45694;SDS011;31408;45.468;9.124;2023-09-07T10:39:37;4.68;;;3.05;;
45694;SDS011;31408;45.468;9.124;2023-09-07T10:42:04;7.97;;;4.50;;
45694;SDS011;31408;45.468;9.124;2023-09-07T10:44:29;5.78;;;3.13;;
45694;SDS011;31408;45.468;9.124;2023-09-07T10:46:55;10.30;;;4.93;;
45694;SDS011;31408;45.468;9.124;2023-09-07T10:49:20;6.78;;;4.05;;
45694;SDS011;31408;45.468;9.124;2023-09-07T10:51:46;21.45;;;5.45;;
45694;SDS011;31408;45.468;9.124;2023-09-07T10:54:21;7.00;;;4.00;;
45694;SDS011;31408;45.468;9.124;2023-09-07T10:56:46;9.38;;;5.05;;
45694;SDS011;31408;45.468;9.124;2023-09-07T10:59:12;9.50;;;3.95;;
45694;SDS011;31408;45.468;9.124;2023-09-07T11:01:38;6.55;;;2.95;;
45694;SDS011;31408;45.468;9.124;2023-09-07T11:04:04;8.00;;;3.30;;
45694;SDS011;31408;45.468;9.124;2023-09-07T11:06:30;10.63;;;5.05;;
45694;SDS011;31408;45.468;9.124;2023-09-07T11:08:59;7.68;;;4.45;;
45694;SDS011;31408;45.468;9.124;2023-09-07T11:11:24;7.07;;;3.92;;
45694;SDS011;31408;45.468;9.124;2023-09-07T11:13:49;10.10;;;4.25;;
45694;SDS011;31408;45.468;9.124;2023-09-07T11:16:15;8.63;;;3.53;;
45694;SDS011;31408;45.468;9.124;2023-09-07T11:18:42;5.28;;;3.72;;
45694;SDS011;31408;45.468;9.124;2023-09-07T11:21:07;9.55;;;4.93;;
45694;SDS011;31408;45.468;9.124;2023-09-07T11:23:33;6.97;;;3.83;;
45694;SDS011;31408;45.468;9.124;2023-09-07T11:26:07;10.25;;;4.00;;
45694;SDS011;31408;45.468;9.124;2023-09-07T11:28:32;6.93;;;3.58;;
45694;SDS011;31408;45.468;9.124;2023-09-07T11:31:03;6.95;;;2.92;;
45694;SDS011;31408;45.468;9.124;2023-09-07T11:33:34;8.18;;;3.47;;
45694;SDS011;31408;45.468;9.124;2023-09-07T11:40:00;7.75;;;4.53;;
45694;SDS011;31408;45.468;9.124;2023-09-07T11:43:24;6.85;;;3.95;;
45694;SDS011;31408;45.468;9.124;2023-09-07T11:46:22;7.15;;;3.80;;
45694;SDS011;31408;45.468;9.124;2023-09-07T11:48:55;7.47;;;3.42;;
45694;SDS011;31408;45.468;9.124;2023-09-07T11:51:27;3.30;;;2.60;;
45694;SDS011;31408;45.468;9.124;2023-09-07T11:56:44;6.88;;;3.08;;
45694;SDS011;31408;45.468;9.124;2023-09-07T11:59:33;7.68;;;3.58;;
45694;SDS011;31408;45.468;9.124;2023-09-07T12:02:01;6.25;;;3.60;;
45694;SDS011;31408;45.468;9.124;2023-09-07T12:04:27;3.50;;;2.65;;
45694;SDS011;31408;45.468;9.124;2023-09-07T12:06:52;6.38;;;3.85;;
45694;SDS011;31408;45.468;9.124;2023-09-07T12:09:22;8.20;;;3.00;;
45694;SDS011;31408;45.468;9.124;2023-09-07T12:11:48;5.05;;;3.35;;
45694;SDS011;31408;45.468;9.124;2023-09-07T12:14:13;6.93;;;3.50;;
45694;SDS011;31408;45.468;9.124;2023-09-07T12:16:38;7.25;;;3.22;;
45694;SDS011;31408;45.468;9.124;2023-09-07T12:19:04;7.38;;;3.30;;
45694;SDS011;31408;45.468;9.124;2023-09-07T12:21:29;5.82;;;3.33;;
45694;SDS011;31408;45.468;9.124;2023-09-07T12:23:55;6.15;;;3.35;;
45694;SDS011;31408;45.468;9.124;2023-09-07T12:26:20;5.82;;;3.60;;
45694;SDS011;31408;45.468;9.124;2023-09-07T12:28:46;4.20;;;2.63;;
45694;SDS011;31408;45.468;9.124;2023-09-07T12:31:14;4.18;;;3.15;;
45694;SDS011;31408;45.468;9.124;2023-09-07T12:33:40;5.13;;;2.65;;
45694;SDS011;31408;45.468;9.124;2023-09-07T12:36:05;16.50;;;5.07;;
45694;SDS011;31408;45.468;9.124;2023-09-07T12:38:34;5.45;;;3.00;;
45694;SDS011;31408;45.468;9.124;2023-09-07T12:40:59;5.53;;;3.45;;
45694;SDS011;31408;45.468;9.124;2023-09-07T12:43:25;4.25;;;2.90;;
45694;SDS011;31408;45.468;9.124;2023-09-07T12:45:50;5.15;;;3.05;;
45694;SDS011;31408;45.468;9.124;2023-09-07T12:48:15;8.15;;;3.00;;
45694;SDS011;31408;45.468;9.124;2023-09-07T12:50:41;6.95;;;2.92;;
45694;SDS011;31408;45.468;9.124;2023-09-07T12:53:06;9.57;;;3.50;;
45694;SDS011;31408;45.468;9.124;2023-09-07T12:55:31;8.82;;;3.22;;
45694;SDS011;31408;45.468;9.124;2023-09-07T12:57:58;14.80;;;4.57;;
45694;SDS011;31408;45.468;9.124;2023-09-07T13:00:29;6.82;;;3.65;;
45694;SDS011;31408;45.468;9.124;2023-09-07T13:02:54;4.95;;;3.13;;
45694;SDS011;31408;45.468;9.124;2023-09-07T13:05:21;4.35;;;2.88;;
45694;SDS011;31408;45.468;9.124;2023-09-07T13:07:46;5.22;;;3.47;;
45694;SDS011;31408;45.468;9.124;2023-09-07T13:10:22;9.63;;;3.35;;
45694;SDS011;31408;45.468;9.124;2023-09-07T13:12:47;6.82;;;4.00;;
45694;SDS011;31408;45.468;9.124;2023-09-07T13:15:12;6.50;;;3.03;;
45694;SDS011;31408;45.468;9.124;2023-09-07T13:17:38;3.90;;;2.92;;
45694;SDS011;31408;45.468;9.124;2023-09-07T13:20:03;8.15;;;3.75;;
45694;SDS011;31408;45.468;9.124;2023-09-07T13:22:29;5.47;;;2.90;;
45694;SDS011;31408;45.468;9.124;2023-09-07T13:24:55;7.20;;;3.53;;
45694;SDS011;31408;45.468;9.124;2023-09-07T13:27:21;8.82;;;4.43;;
45694;SDS011;31408;45.468;9.124;2023-09-07T13:29:51;5.13;;;3.00;;
45694;SDS011;31408;45.468;9.124;2023-09-07T13:32:17;9.35;;;3.28;;
45694;SDS011;31408;45.468;9.124;2023-09-07T13:34:42;4.70;;;3.15;;
45694;SDS011;31408;45.468;9.124;2023-09-07T13:37:07;6.55;;;2.63;;
45694;SDS011;31408;45.468;9.124;2023-09-07T13:39:33;6.97;;;3.05;;
45694;SDS011;31408;45.468;9.124;2023-09-07T13:41:58;6.03;;;3.53;;
45694;SDS011;31408;45.468;9.124;2023-09-07T13:44:23;7.05;;;3.17;;
45694;SDS011;31408;45.468;9.124;2023-09-07T13:46:49;7.63;;;3.22;;
45694;SDS011;31408;45.468;9.124;2023-09-07T13:49:14;3.83;;;2.58;;
45694;SDS011;31408;45.468;9.124;2023-09-07T13:51:40;6.30;;;3.10;;
45694;SDS011;31408;45.468;9.124;2023-09-07T13:54:06;7.03;;;3.75;;
45694;SDS011;31408;45.468;9.124;2023-09-07T13:56:32;4.22;;;2.83;;
45694;SDS011;31408;45.468;9.124;2023-09-07T13:58:57;5.72;;;3.13;;
45694;SDS011;31408;45.468;9.124;2023-09-07T14:01:23;4.65;;;3.10;;
45694;SDS011;31408;45.468;9.124;2023-09-07T14:03:50;6.88;;;3.45;;
45694;SDS011;31408;45.468;9.124;2023-09-07T14:06:15;5.68;;;3.38;;
45694;SDS011;31408;45.468;9.124;2023-09-07T14:08:42;4.65;;;3.22;;
45694;SDS011;31408;45.468;9.124;2023-09-07T14:11:08;4.97;;;3.35;;
45694;SDS011;31408;45.468;9.124;2023-09-07T14:13:33;5.07;;;3.22;;
45694;SDS011;31408;45.468;9.124;2023-09-07T14:16:00;5.60;;;3.00;;
45694;SDS011;31408;45.468;9.124;2023-09-07T14:18:25;10.27;;;3.88;;
45694;SDS011;31408;45.468;9.124;2023-09-07T14:20:50;7.55;;;3.58;;
45694;SDS011;31408;45.468;9.124;2023-09-07T14:23:17;6.97;;;3.70;;
45694;SDS011;31408;45.468;9.124;2023-09-07T14:25:45;6.22;;;3.72;;
45694;SDS011;31408;45.468;9.124;2023-09-07T14:28:11;6.88;;;3.53;;
45694;SDS011;31408;45.468;9.124;2023-09-07T14:30:46;6.63;;;3.10;;
45694;SDS011;31408;45.468;9.124;2023-09-07T14:33:12;4.45;;;3.22;;
45694;SDS011;31408;45.468;9.124;2023-09-07T14:35:37;9.95;;;3.45;;
45694;SDS011;31408;45.468;9.124;2023-09-07T14:38:03;6.47;;;3.75;;
45694;SDS011;31408;45.468;9.124;2023-09-07T14:40:28;10.80;;;4.05;;
45694;SDS011;31408;45.468;9.124;2023-09-07T14:42:54;11.27;;;3.60;;
45694;SDS011;31408;45.468;9.124;2023-09-07T14:45:22;10.18;;;3.78;;
45694;SDS011;31408;45.468;9.124;2023-09-07T14:47:47;9.35;;;4.82;;